sensor_id;sensor_type;location;lat;lon;timestamp;pressure;altitude;pressure_sealevel;temperature;humidity
15444;BME280;7822;48.146;11.576;2023-05-08T00:01:21;95367.84;;;16.12;75.02
15444;BME280;7822;48.146;11.576;2023-05-08T00:03:50;95358.34;;;16.11;74.53
15444;BME280;7822;48.146;11.576;2023-05-08T00:06:18;95359.28;;;16.10;74.51
15444;BME280;7822;48.146;11.576;2023-05-08T00:08:45;95362.75;;;16.11;74.40
15444;BME280;7822;48.146;11.576;2023-05-08T00:11:13;95355.88;;;16.10;74.39
15444;BME280;7822;48.146;11.576;2023-05-08T00:13:40;95362.75;;;16.11;74.44
15444;BME280;7822;48.146;11.576;2023-05-08T00:16:09;95366.19;;;16.11;74.55
15444;BME280;7822;48.146;11.576;2023-05-08T00:18:38;95368.97;;;16.10;74.42
15444;BME280;7822;48.146;11.576;2023-05-08T00:21:05;95365.53;;;16.09;74.39
15444;BME280;7822;48.146;11.576;2023-05-08T00:23:33;95371.59;;;16.10;74.38
15444;BME280;7822;48.146;11.576;2023-05-08T00:26:00;95379.44;;;16.10;74.33
15444;BME280;7822;48.146;11.576;2023-05-08T00:28:28;95377.78;;;16.09;74.33
15444;BME280;7822;48.146;11.576;2023-05-08T00:30:59;95381.22;;;16.09;74.28
15444;BME280;7822;48.146;11.576;2023-05-08T00:33:28;95378.59;;;16.09;74.56
15444;BME280;7822;48.146;11.576;2023-05-08T00:35:59;95372.53;;;16.09;74.40
15444;BME280;7822;48.146;11.576;2023-05-08T00:38:28;95375.16;;;16.09;74.41
15444;BME280;7822;48.146;11.576;2023-05-08T00:40:56;95376.81;;;16.10;74.42
15444;BME280;7822;48.146;11.576;2023-05-08T00:43:23;95377.78;;;16.09;74.32
15444;BME280;7822;48.146;11.576;2023-05-08T00:45:53;95375.16;;;16.09;74.45
15444;BME280;7822;48.146;11.576;2023-05-08T00:48:21;95375.16;;;16.09;74.47
15444;BME280;7822;48.146;11.576;2023-05-08T00:50:51;95376.94;;;16.08;74.36
15444;BME280;7822;48.146;11.576;2023-05-08T00:53:19;95375.16;;;16.09;74.38
15444;BME280;7822;48.146;11.576;2023-05-08T00:55:48;95367.31;;;16.09;74.50
15444;BME280;7822;48.146;11.576;2023-05-08T00:58:16;95371.72;;;16.08;74.32
15444;BME280;7822;48.146;11.576;2023-05-08T01:00:44;95372.53;;;16.09;74.41
15444;BME280;7822;48.146;11.576;2023-05-08T01:03:12;95369.09;;;16.08;74.36
15444;BME280;7822;48.146;11.576;2023-05-08T01:05:40;95373.38;;;16.09;74.40
15444;BME280;7822;48.146;11.576;2023-05-08T01:08:09;95376.81;;;16.10;74.38
15444;BME280;7822;48.146;11.576;2023-05-08T01:10:40;95378.59;;;16.09;74.36
15444;BME280;7822;48.146;11.576;2023-05-08T01:13:10;95378.59;;;16.09;74.31
15444;BME280;7822;48.146;11.576;2023-05-08T01:15:42;95382.06;;;16.10;74.41
15444;BME280;7822;48.146;11.576;2023-05-08T01:18:12;95379.44;;;16.10;74.26
15444;BME280;7822;48.146;11.576;2023-05-08T01:20:44;95379.44;;;16.10;74.44
15444;BME280;7822;48.146;11.576;2023-05-08T01:23:28;95378.44;;;16.11;74.24
15444;BME280;7822;48.146;11.576;2023-05-08T01:26:27;95389.75;;;16.11;74.31
15444;BME280;7822;48.146;11.576;2023-05-08T01:29:02;95390.69;;;16.10;74.33
15444;BME280;7822;48.146;11.576;2023-05-08T01:31:36;95394.97;;;16.11;74.30
15444;BME280;7822;48.146;11.576;2023-05-08T01:34:10;95389.91;;;16.10;74.04
15444;BME280;7822;48.146;11.576;2023-05-08T01:36:43;95400.38;;;16.10;74.24
15444;BME280;7822;48.146;11.576;2023-05-08T01:39:16;95402.00;;;16.11;74.28
15444;BME280;7822;48.146;11.576;2023-05-08T01:41:45;95393.31;;;16.10;74.29
15444;BME280;7822;48.146;11.576;2023-05-08T01:44:15;95403.78;;;16.10;74.39
15444;BME280;7822;48.146;11.576;2023-05-08T01:46:49;95396.94;;;16.09;74.22
15444;BME280;7822;48.146;11.576;2023-05-08T01:49:19;95400.38;;;16.10;74.41
15444;BME280;7822;48.146;11.576;2023-05-08T01:51:52;95402.16;;;16.09;74.32
15444;BME280;7822;48.146;11.576;2023-05-08T01:54:24;95410.00;;;16.09;74.41
15444;BME280;7822;48.146;11.576;2023-05-08T01:56:54;95409.19;;;16.09;74.13
15444;BME280;7822;48.146;11.576;2023-05-08T01:59:22;95410.00;;;16.09;74.48
15444;BME280;7822;48.146;11.576;2023-05-08T02:01:51;95410.00;;;16.09;74.39
15444;BME280;7822;48.146;11.576;2023-05-08T02:04:21;95402.31;;;16.08;74.42
15444;BME280;7822;48.146;11.576;2023-05-08T02:06:50;95406.56;;;16.09;74.34
15444;BME280;7822;48.146;11.576;2023-05-08T02:09:18;95411.81;;;16.09;74.27
15444;BME280;7822;48.146;11.576;2023-05-08T02:11:47;95412.78;;;16.08;74.31
15444;BME280;7822;48.146;11.576;2023-05-08T02:14:16;95411.97;;;16.07;74.54
15444;BME280;7822;48.146;11.576;2023-05-08T02:16:46;95407.41;;;16.09;74.32
15444;BME280;7822;48.146;11.576;2023-05-08T02:19:15;95410.19;;;16.08;74.45
15444;BME280;7822;48.146;11.576;2023-05-08T02:21:44;95410.19;;;16.08;74.42
15444;BME280;7822;48.146;11.576;2023-05-08T02:24:12;95419.81;;;16.07;74.42
15444;BME280;7822;48.146;11.576;2023-05-08T02:26:41;95414.41;;;16.09;74.21
15444;BME280;7822;48.146;11.576;2023-05-08T02:29:09;95412.78;;;16.08;74.40
15444;BME280;7822;48.146;11.576;2023-05-08T02:31:37;95414.56;;;16.07;74.42
15444;BME280;7822;48.146;11.576;2023-05-08T02:34:05;95413.59;;;16.08;74.56
15444;BME280;7822;48.146;11.576;2023-05-08T02:36:34;95411.81;;;16.09;74.51
15444;BME280;7822;48.146;11.576;2023-05-08T02:39:03;95409.19;;;16.09;74.31
15444;BME280;7822;48.146;11.576;2023-05-08T02:41:32;95414.41;;;16.09;74.40
15444;BME280;7822;48.146;11.576;2023-05-08T02:44:00;95418.69;;;16.10;74.60
15444;BME280;7822;48.146;11.576;2023-05-08T02:46:29;95421.31;;;16.10;74.33
15444;BME280;7822;48.146;11.576;2023-05-08T02:49:02;95417.88;;;16.09;74.22
15444;BME280;7822;48.146;11.576;2023-05-08T02:51:34;95417.88;;;16.09;74.30
15444;BME280;7822;48.146;11.576;2023-05-08T02:54:07;95422.09;;;16.10;74.23
15444;BME280;7822;48.146;11.576;2023-05-08T02:56:36;95419.50;;;16.10;74.32
15444;BME280;7822;48.146;11.576;2023-05-08T02:59:09;95417.69;;;16.11;74.27
15444;BME280;7822;48.146;11.576;2023-05-08T03:01:40;95416.88;;;16.10;74.35
15444;BME280;7822;48.146;11.576;2023-05-08T03:04:10;95422.94;;;16.11;74.24
15444;BME280;7822;48.146;11.576;2023-05-08T03:06:40;95416.06;;;16.10;74.19
15444;BME280;7822;48.146;11.576;2023-05-08T03:09:11;95424.72;;;16.10;74.27
15444;BME280;7822;48.146;11.576;2023-05-08T03:11:42;95411.81;;;16.09;74.32
15444;BME280;7822;48.146;11.576;2023-05-08T03:14:11;95418.69;;;16.10;74.16
15444;BME280;7822;48.146;11.576;2023-05-08T03:16:40;95413.47;;;16.10;74.18
15444;BME280;7822;48.146;11.576;2023-05-08T03:19:10;95421.31;;;16.10;74.25
15444;BME280;7822;48.146;11.576;2023-05-08T03:21:41;95418.69;;;16.10;74.26
15444;BME280;7822;48.146;11.576;2023-05-08T03:24:11;95424.72;;;16.10;74.21
15444;BME280;7822;48.146;11.576;2023-05-08T03:26:41;95424.88;;;16.09;74.42
15444;BME280;7822;48.146;11.576;2023-05-08T03:29:10;95424.72;;;16.10;74.30
15444;BME280;7822;48.146;11.576;2023-05-08T03:31:39;95423.09;;;16.09;74.32
15444;BME280;7822;48.146;11.576;2023-05-08T03:34:07;95426.66;;;16.08;74.30
15444;BME280;7822;48.146;11.576;2023-05-08T03:36:35;95427.50;;;16.09;74.16
15444;BME280;7822;48.146;11.576;2023-05-08T03:39:03;95420.47;;;16.09;74.31
15444;BME280;7822;48.146;11.576;2023-05-08T03:41:32;95423.94;;;16.10;74.30
15444;BME280;7822;48.146;11.576;2023-05-08T03:43:59;95429.16;;;16.10;74.28
15444;BME280;7822;48.146;11.576;2023-05-08T03:46:29;95424.88;;;16.09;74.45
15444;BME280;7822;48.146;11.576;2023-05-08T03:48:57;95428.34;;;16.09;74.15
15444;BME280;7822;48.146;11.576;2023-05-08T03:51:26;95423.09;;;16.09;74.02
15444;BME280;7822;48.146;11.576;2023-05-08T03:53:54;95424.06;;;16.08;74.28
15444;BME280;7822;48.146;11.576;2023-05-08T03:56:21;95433.56;;;16.09;74.40
15444;BME280;7822;48.146;11.576;2023-05-08T03:58:55;95434.53;;;16.08;74.37
15444;BME280;7822;48.146;11.576;2023-05-08T04:01:24;95436.19;;;16.09;74.36
15444;BME280;7822;48.146;11.576;2023-05-08T04:03:56;95432.72;;;16.09;74.23
15444;BME280;7822;48.146;11.576;2023-05-08T04:06:28;95437.13;;;16.08;74.31
15444;BME280;7822;48.146;11.576;2023-05-08T04:09:12;95444.03;;;16.09;74.32
15444;BME280;7822;48.146;11.576;2023-05-08T04:11:41;95443.03;;;16.10;74.29
15444;BME280;7822;48.146;11.576;2023-05-08T04:14:12;95440.44;;;16.10;74.35
15444;BME280;7822;48.146;11.576;2023-05-08T04:16:42;95449.09;;;16.11;74.30
15444;BME280;7822;48.146;11.576;2023-05-08T04:19:14;95443.03;;;16.10;74.16
15444;BME280;7822;48.146;11.576;2023-05-08T04:21:44;95455.16;;;16.11;74.23
15444;BME280;7822;48.146;11.576;2023-05-08T04:24:13;95456.00;;;16.12;74.21
15444;BME280;7822;48.146;11.576;2023-05-08T04:26:41;95458.63;;;16.12;74.21
15444;BME280;7822;48.146;11.576;2023-05-08T04:29:09;95461.22;;;16.12;74.25
15444;BME280;7822;48.146;11.576;2023-05-08T04:31:38;95464.69;;;16.12;74.49
15444;BME280;7822;48.146;11.576;2023-05-08T04:34:06;95462.06;;;16.12;74.24
15444;BME280;7822;48.146;11.576;2023-05-08T04:36:34;95468.09;;;16.13;74.19
15444;BME280;7822;48.146;11.576;2023-05-08T04:39:01;95464.69;;;16.12;74.29
15444;BME280;7822;48.146;11.576;2023-05-08T04:41:29;95463.69;;;16.13;74.23
15444;BME280;7822;48.146;11.576;2023-05-08T04:43:57;95472.53;;;16.12;74.36
15444;BME280;7822;48.146;11.576;2023-05-08T04:46:25;95472.53;;;16.12;74.36
15444;BME280;7822;48.146;11.576;2023-05-08T04:48:54;95469.09;;;16.12;74.34
15444;BME280;7822;48.146;11.576;2023-05-08T04:51:21;95470.88;;;16.11;74.38
15444;BME280;7822;48.146;11.576;2023-05-08T04:53:48;95474.31;;;16.12;74.28
15444;BME280;7822;48.146;11.576;2023-05-08T04:56:16;95476.94;;;16.12;74.10
15444;BME280;7822;48.146;11.576;2023-05-08T04:58:44;95485.63;;;16.12;74.09
15444;BME280;7822;48.146;11.576;2023-05-08T05:01:11;95484.78;;;16.12;74.29
15444;BME280;7822;48.146;11.576;2023-05-08T05:03:39;95483.81;;;16.13;74.25
15444;BME280;7822;48.146;11.576;2023-05-08T05:06:08;95490.03;;;16.12;74.27
15444;BME280;7822;48.146;11.576;2023-05-08T05:08:35;95496.09;;;16.12;74.31
15444;BME280;7822;48.146;11.576;2023-05-08T05:11:03;95487.41;;;16.12;74.39
15444;BME280;7822;48.146;11.576;2023-05-08T05:13:30;95488.25;;;16.12;74.25
15444;BME280;7822;48.146;11.576;2023-05-08T05:15:58;95496.88;;;16.13;74.09
15444;BME280;7822;48.146;11.576;2023-05-08T05:18:25;95494.28;;;16.13;74.40
15444;BME280;7822;48.146;11.576;2023-05-08T05:20:56;95494.28;;;16.13;74.25
15444;BME280;7822;48.146;11.576;2023-05-08T05:23:25;95501.16;;;16.14;74.20
15444;BME280;7822;48.146;11.576;2023-05-08T05:25:52;95498.56;;;16.14;74.30
15444;BME280;7822;48.146;11.576;2023-05-08T05:28:20;95500.34;;;16.13;74.18
15444;BME280;7822;48.146;11.576;2023-05-08T05:30:47;95500.19;;;16.15;74.18
15444;BME280;7822;48.146;11.576;2023-05-08T05:33:15;95499.38;;;16.14;74.22
15444;BME280;7822;48.146;11.576;2023-05-08T05:35:42;95510.66;;;16.15;74.22
15444;BME280;7822;48.146;11.576;2023-05-08T05:38:10;95508.84;;;16.15;74.16
15444;BME280;7822;48.146;11.576;2023-05-08T05:40:39;95514.09;;;16.15;74.05
15444;BME280;7822;48.146;11.576;2023-05-08T05:43:06;95509.84;;;16.14;74.04
15444;BME280;7822;48.146;11.576;2023-05-08T05:45:33;95519.31;;;16.15;74.20
15444;BME280;7822;48.146;11.576;2023-05-08T05:48:01;95514.91;;;16.16;74.12
15444;BME280;7822;48.146;11.576;2023-05-08T05:50:29;95516.72;;;16.15;74.31
15444;BME280;7822;48.146;11.576;2023-05-08T05:52:56;95516.72;;;16.15;74.28
15444;BME280;7822;48.146;11.576;2023-05-08T05:55:24;95514.91;;;16.16;74.19
15444;BME280;7822;48.146;11.576;2023-05-08T05:57:53;95521.81;;;16.17;74.41
15444;BME280;7822;48.146;11.576;2023-05-08T06:00:20;95524.44;;;16.17;74.09
15444;BME280;7822;48.146;11.576;2023-05-08T06:02:48;95534.06;;;16.16;74.08
15444;BME280;7822;48.146;11.576;2023-05-08T06:05:15;95527.06;;;16.17;74.09
15444;BME280;7822;48.146;11.576;2023-05-08T06:07:44;95524.44;;;16.17;74.08
15444;BME280;7822;48.146;11.576;2023-05-08T06:10:12;95532.28;;;16.17;74.04
15444;BME280;7822;48.146;11.576;2023-05-08T06:12:39;95527.06;;;16.17;73.96
15444;BME280;7822;48.146;11.576;2023-05-08T06:15:09;95529.66;;;16.17;74.02
15444;BME280;7822;48.146;11.576;2023-05-08T06:17:38;95530.47;;;16.17;74.14
15444;BME280;7822;48.146;11.576;2023-05-08T06:20:05;95530.47;;;16.17;74.13
15444;BME280;7822;48.146;11.576;2023-05-08T06:22:33;95527.84;;;16.17;74.06
15444;BME280;7822;48.146;11.576;2023-05-08T06:25:02;95528.00;;;16.16;74.10
15444;BME280;7822;48.146;11.576;2023-05-08T06:27:32;95529.66;;;16.17;74.30
15444;BME280;7822;48.146;11.576;2023-05-08T06:29:59;95528.00;;;16.16;74.17
15444;BME280;7822;48.146;11.576;2023-05-08T06:32:28;95532.28;;;16.17;74.14
15444;BME280;7822;48.146;11.576;2023-05-08T06:34:56;95534.06;;;16.16;74.07
15444;BME280;7822;48.146;11.576;2023-05-08T06:37:23;95540.13;;;16.17;74.17
15444;BME280;7822;48.146;11.576;2023-05-08T06:39:51;95540.13;;;16.17;74.17
15444;BME280;7822;48.146;11.576;2023-05-08T06:42:36;95535.88;;;16.16;74.10
15444;BME280;7822;48.146;11.576;2023-05-08T06:45:04;95542.75;;;16.17;74.16
15444;BME280;7822;48.146;11.576;2023-05-08T06:47:34;95541.94;;;16.16;74.21
15444;BME280;7822;48.146;11.576;2023-05-08T06:50:01;95541.94;;;16.16;74.17
15444;BME280;7822;48.146;11.576;2023-05-08T06:52:29;95541.09;;;16.16;74.29
15444;BME280;7822;48.146;11.576;2023-05-08T06:54:57;95544.66;;;16.15;74.23
15444;BME280;7822;48.146;11.576;2023-05-08T06:57:24;95535.03;;;16.15;74.36
15444;BME280;7822;48.146;11.576;2023-05-08T06:59:54;95548.13;;;16.15;74.21
15444;BME280;7822;48.146;11.576;2023-05-08T07:02:21;95548.94;;;16.16;74.16
15444;BME280;7822;48.146;11.576;2023-05-08T07:04:50;95550.75;;;16.15;74.33
15444;BME280;7822;48.146;11.576;2023-05-08T07:07:18;95551.56;;;16.16;74.24
15444;BME280;7822;48.146;11.576;2023-05-08T07:09:46;95551.56;;;16.16;74.31
15444;BME280;7822;48.146;11.576;2023-05-08T07:12:13;95556.81;;;16.16;74.33
15444;BME280;7822;48.146;11.576;2023-05-08T07:14:42;95562.88;;;16.16;74.21
15444;BME280;7822;48.146;11.576;2023-05-08T07:17:09;95548.94;;;16.16;74.31
15444;BME280;7822;48.146;11.576;2023-05-08T07:19:37;95552.41;;;16.16;74.27
15444;BME280;7822;48.146;11.576;2023-05-08T07:22:06;95555.00;;;16.16;74.26
15444;BME280;7822;48.146;11.576;2023-05-08T07:24:33;95549.78;;;16.16;74.14
15444;BME280;7822;48.146;11.576;2023-05-08T07:27:00;95556.66;;;16.17;74.21
15444;BME280;7822;48.146;11.576;2023-05-08T07:29:28;95567.13;;;16.17;74.23
15444;BME280;7822;48.146;11.576;2023-05-08T07:31:55;95561.88;;;16.17;74.15
15444;BME280;7822;48.146;11.576;2023-05-08T07:34:23;95563.69;;;16.17;74.17
15444;BME280;7822;48.146;11.576;2023-05-08T07:36:51;95565.31;;;16.18;74.06
15444;BME280;7822;48.146;11.576;2023-05-08T07:39:19;95566.31;;;16.17;74.18
15444;BME280;7822;48.146;11.576;2023-05-08T07:41:47;95568.94;;;16.17;74.31
15444;BME280;7822;48.146;11.576;2023-05-08T07:44:15;95552.25;;;16.18;74.42
15444;BME280;7822;48.146;11.576;2023-05-08T07:46:42;95565.31;;;16.18;74.12
15444;BME280;7822;48.146;11.576;2023-05-08T07:49:10;95570.56;;;16.18;74.16
15444;BME280;7822;48.146;11.576;2023-05-08T07:51:37;95567.13;;;16.17;74.23
15444;BME280;7822;48.146;11.576;2023-05-08T07:54:05;95573.19;;;16.18;73.99
15444;BME280;7822;48.146;11.576;2023-05-08T07:56:34;95574.00;;;16.18;74.18
15444;BME280;7822;48.146;11.576;2023-05-08T07:59:01;95565.31;;;16.18;74.23
15444;BME280;7822;48.146;11.576;2023-05-08T08:01:29;95567.13;;;16.17;74.18
15444;BME280;7822;48.146;11.576;2023-05-08T08:03:56;95567.94;;;16.18;74.06
15444;BME280;7822;48.146;11.576;2023-05-08T08:06:24;95567.94;;;16.18;74.16
15444;BME280;7822;48.146;11.576;2023-05-08T08:08:52;95565.31;;;16.18;74.21
15444;BME280;7822;48.146;11.576;2023-05-08T08:11:19;95571.41;;;16.18;74.22
15444;BME280;7822;48.146;11.576;2023-05-08T08:13:48;95564.50;;;16.17;74.31
15444;BME280;7822;48.146;11.576;2023-05-08T08:16:15;95568.94;;;16.17;74.20
15444;BME280;7822;48.146;11.576;2023-05-08T08:18:43;95571.56;;;16.17;74.28
15444;BME280;7822;48.146;11.576;2023-05-08T08:21:10;95572.34;;;16.17;74.15
15444;BME280;7822;48.146;11.576;2023-05-08T08:23:38;95574.16;;;16.17;74.19
15444;BME280;7822;48.146;11.576;2023-05-08T08:26:05;95571.56;;;16.17;74.33
15444;BME280;7822;48.146;11.576;2023-05-08T08:28:33;95572.50;;;16.16;74.24
15444;BME280;7822;48.146;11.576;2023-05-08T08:31:02;95567.28;;;16.16;74.28
15444;BME280;7822;48.146;11.576;2023-05-08T08:33:29;95568.94;;;16.17;74.28
15444;BME280;7822;48.146;11.576;2023-05-08T08:35:57;95573.34;;;16.16;74.24
15444;BME280;7822;48.146;11.576;2023-05-08T08:38:24;95575.97;;;16.16;74.31
15444;BME280;7822;48.146;11.576;2023-05-08T08:40:52;95575.97;;;16.16;74.32
15444;BME280;7822;48.146;11.576;2023-05-08T08:43:19;95578.56;;;16.16;74.18
15444;BME280;7822;48.146;11.576;2023-05-08T08:45:47;95574.16;;;16.17;74.28
15444;BME280;7822;48.146;11.576;2023-05-08T08:48:16;95566.31;;;16.17;74.48
15444;BME280;7822;48.146;11.576;2023-05-08T08:50:46;95568.09;;;16.16;74.34
15444;BME280;7822;48.146;11.576;2023-05-08T08:53:18;95568.09;;;16.16;74.19
15444;BME280;7822;48.146;11.576;2023-05-08T08:55:48;95563.69;;;16.17;74.27
15444;BME280;7822;48.146;11.576;2023-05-08T08:58:20;95556.81;;;16.16;74.26
15444;BME280;7822;48.146;11.576;2023-05-08T09:00:48;95560.25;;;16.16;74.40
15444;BME280;7822;48.146;11.576;2023-05-08T09:03:17;95563.69;;;16.17;74.35
15444;BME280;7822;48.146;11.576;2023-05-08T09:05:45;95570.56;;;16.18;74.40
15444;BME280;7822;48.146;11.576;2023-05-08T09:08:14;95570.56;;;16.18;74.11
15444;BME280;7822;48.146;11.576;2023-05-08T09:10:42;95567.94;;;16.18;74.49
15444;BME280;7822;48.146;11.576;2023-05-08T09:13:09;95560.09;;;16.18;74.24
15444;BME280;7822;48.146;11.576;2023-05-08T09:15:37;95564.50;;;16.17;74.25
15444;BME280;7822;48.146;11.576;2023-05-08T09:18:04;95567.78;;;16.19;74.21
15444;BME280;7822;48.146;11.576;2023-05-08T09:20:33;95566.16;;;16.18;74.12
15444;BME280;7822;48.146;11.576;2023-05-08T09:23:01;95565.16;;;16.19;74.25
15444;BME280;7822;48.146;11.576;2023-05-08T09:25:39;95567.00;;;16.19;74.07
15444;BME280;7822;48.146;11.576;2023-05-08T09:28:16;95552.25;;;16.18;74.27
15444;BME280;7822;48.146;11.576;2023-05-08T09:30:47;95560.09;;;16.18;74.04
15444;BME280;7822;48.146;11.576;2023-05-08T09:33:15;95567.78;;;16.19;74.23
15444;BME280;7822;48.146;11.576;2023-05-08T09:35:44;95566.16;;;16.18;74.17
15444;BME280;7822;48.146;11.576;2023-05-08T09:38:32;95563.53;;;16.18;74.35
15444;BME280;7822;48.146;11.576;2023-05-08T09:41:07;95570.56;;;16.18;74.39
15444;BME280;7822;48.146;11.576;2023-05-08T09:43:35;95568.78;;;16.18;74.18
15444;BME280;7822;48.146;11.576;2023-05-08T09:46:18;95567.94;;;16.18;74.29
15444;BME280;7822;48.146;11.576;2023-05-08T09:48:46;95564.50;;;16.17;74.29
15444;BME280;7822;48.146;11.576;2023-05-08T09:51:15;95561.09;;;16.17;74.31
15444;BME280;7822;48.146;11.576;2023-05-08T09:53:43;95566.31;;;16.17;74.30
15444;BME280;7822;48.146;11.576;2023-05-08T09:56:10;95562.88;;;16.16;74.36
15444;BME280;7822;48.146;11.576;2023-05-08T09:58:38;95574.16;;;16.17;74.33
15444;BME280;7822;48.146;11.576;2023-05-08T10:01:06;95564.50;;;16.17;74.39
15444;BME280;7822;48.146;11.576;2023-05-08T10:03:46;95571.56;;;16.17;74.35
15444;BME280;7822;48.146;11.576;2023-05-08T10:06:16;95568.94;;;16.17;74.38
15444;BME280;7822;48.146;11.576;2023-05-08T10:08:44;95565.63;;;16.15;74.28
15444;BME280;7822;48.146;11.576;2023-05-08T10:11:12;95559.41;;;16.16;74.32
15444;BME280;7822;48.146;11.576;2023-05-08T10:13:40;95572.34;;;16.17;74.26
15444;BME280;7822;48.146;11.576;2023-05-08T10:16:08;95568.09;;;16.16;74.41
15444;BME280;7822;48.146;11.576;2023-05-08T10:18:37;95560.38;;;16.15;74.27
15444;BME280;7822;48.146;11.576;2023-05-08T10:21:06;95572.50;;;16.16;74.39
15444;BME280;7822;48.146;11.576;2023-05-08T10:23:35;95569.88;;;16.16;74.35
15444;BME280;7822;48.146;11.576;2023-05-08T10:26:05;95569.06;;;16.15;74.38
15444;BME280;7822;48.146;11.576;2023-05-08T10:28:36;95564.66;;;16.16;74.47
15444;BME280;7822;48.146;11.576;2023-05-08T10:31:06;95564.50;;;16.17;74.43
15444;BME280;7822;48.146;11.576;2023-05-08T10:33:34;95567.13;;;16.17;74.33
15444;BME280;7822;48.146;11.576;2023-05-08T10:36:05;95567.94;;;16.18;74.28
15444;BME280;7822;48.146;11.576;2023-05-08T10:38:36;95555.84;;;16.17;74.29
15444;BME280;7822;48.146;11.576;2023-05-08T10:41:04;95562.72;;;16.18;74.36
15444;BME280;7822;48.146;11.576;2023-05-08T10:43:31;95548.00;;;16.17;74.32
15444;BME280;7822;48.146;11.576;2023-05-08T10:46:01;95550.44;;;16.18;74.29
15444;BME280;7822;48.146;11.576;2023-05-08T10:48:35;95550.44;;;16.18;74.28
15444;BME280;7822;48.146;11.576;2023-05-08T10:51:08;95549.63;;;16.18;74.27
15444;BME280;7822;48.146;11.576;2023-05-08T10:53:39;95550.44;;;16.18;74.42
15444;BME280;7822;48.146;11.576;2023-05-08T10:56:08;95545.22;;;16.18;74.28
15444;BME280;7822;48.146;11.576;2023-05-08T10:58:36;95543.44;;;16.19;74.40
15444;BME280;7822;48.146;11.576;2023-05-08T11:01:12;95539.97;;;16.18;74.24
15444;BME280;7822;48.146;11.576;2023-05-08T11:03:41;95543.44;;;16.19;74.19
15444;BME280;7822;48.146;11.576;2023-05-08T11:06:09;95547.84;;;16.18;74.25
15444;BME280;7822;48.146;11.576;2023-05-08T11:08:44;95549.47;;;16.19;74.20
15444;BME280;7822;48.146;11.576;2023-05-08T11:11:13;95551.28;;;16.19;74.27
15444;BME280;7822;48.146;11.576;2023-05-08T11:13:44;95544.38;;;16.18;74.17
15444;BME280;7822;48.146;11.576;2023-05-08T11:16:13;95542.59;;;16.18;74.29
15444;BME280;7822;48.146;11.576;2023-05-08T11:21:23;95548.78;;;16.17;74.35
15444;BME280;7822;48.146;11.576;2023-05-08T11:23:56;95545.22;;;16.18;74.37
15444;BME280;7822;48.146;11.576;2023-05-08T11:26:37;95540.94;;;16.17;74.32
15444;BME280;7822;48.146;11.576;2023-05-08T11:29:10;95540.94;;;16.17;74.36
15444;BME280;7822;48.146;11.576;2023-05-08T11:31:48;95535.72;;;16.17;74.29
15444;BME280;7822;48.146;11.576;2023-05-08T11:37:11;95529.66;;;16.17;74.31
15444;BME280;7822;48.146;11.576;2023-05-08T11:39:44;95540.94;;;16.17;74.38
15444;BME280;7822;48.146;11.576;2023-05-08T11:44:59;95540.94;;;16.17;74.36
15444;BME280;7822;48.146;11.576;2023-05-08T11:47:30;95537.38;;;16.18;74.45
15444;BME280;7822;48.146;11.576;2023-05-08T11:49:58;95540.13;;;16.17;74.33
15444;BME280;7822;48.146;11.576;2023-05-08T11:52:25;95540.94;;;16.17;74.42
15444;BME280;7822;48.146;11.576;2023-05-08T11:54:54;95540.94;;;16.17;74.42
15444;BME280;7822;48.146;11.576;2023-05-08T11:57:22;95539.31;;;16.16;74.61
15444;BME280;7822;48.146;11.576;2023-05-08T11:59:49;95536.69;;;16.16;74.40
15444;BME280;7822;48.146;11.576;2023-05-08T12:02:17;95543.56;;;16.17;74.32
15444;BME280;7822;48.146;11.576;2023-05-08T12:04:45;95548.78;;;16.17;74.06
15444;BME280;7822;48.146;11.576;2023-05-08T12:07:13;95542.75;;;16.17;74.36
15444;BME280;7822;48.146;11.576;2023-05-08T12:09:41;95545.22;;;16.18;74.37
15444;BME280;7822;48.146;11.576;2023-05-08T12:12:10;95549.47;;;16.19;74.51
15444;BME280;7822;48.146;11.576;2023-05-08T12:14:37;95545.22;;;16.18;74.43
15444;BME280;7822;48.146;11.576;2023-05-08T12:17:05;95545.22;;;16.18;74.36
15444;BME280;7822;48.146;11.576;2023-05-08T12:19:33;95550.28;;;16.20;74.29
15444;BME280;7822;48.146;11.576;2023-05-08T12:22:00;95551.28;;;16.19;74.31
15444;BME280;7822;48.146;11.576;2023-05-08T12:24:28;95552.09;;;16.19;74.32
15444;BME280;7822;48.146;11.576;2023-05-08T12:26:56;95552.09;;;16.19;74.32
15444;BME280;7822;48.146;11.576;2023-05-08T12:29:25;95542.44;;;16.20;74.37
15444;BME280;7822;48.146;11.576;2023-05-08T12:31:53;95534.59;;;16.20;74.33
15444;BME280;7822;48.146;11.576;2023-05-08T12:34:20;95545.06;;;16.20;74.29
15444;BME280;7822;48.146;11.576;2023-05-08T12:36:48;95549.34;;;16.21;74.32
15444;BME280;7822;48.146;11.576;2023-05-08T12:39:27;95547.53;;;16.21;74.22
15444;BME280;7822;48.146;11.576;2023-05-08T12:41:54;95544.91;;;16.21;74.30
15444;BME280;7822;48.146;11.576;2023-05-08T12:44:26;95547.38;;;16.23;74.22
15444;BME280;7822;48.146;11.576;2023-05-08T12:46:54;95547.38;;;16.23;74.27
15444;BME280;7822;48.146;11.576;2023-05-08T12:49:23;95550.00;;;16.23;74.18
15444;BME280;7822;48.146;11.576;2023-05-08T12:51:51;95542.97;;;16.23;74.25
15444;BME280;7822;48.146;11.576;2023-05-08T12:54:30;95545.59;;;16.23;74.11
15444;BME280;7822;48.146;11.576;2023-05-08T12:56:58;95542.97;;;16.23;74.18
15444;BME280;7822;48.146;11.576;2023-05-08T12:59:31;95542.16;;;16.23;74.21
15444;BME280;7822;48.146;11.576;2023-05-08T13:01:59;95536.09;;;16.22;74.11
15444;BME280;7822;48.146;11.576;2023-05-08T13:04:26;95541.16;;;16.24;74.35
15444;BME280;7822;48.146;11.576;2023-05-08T13:06:54;95541.16;;;16.24;74.49
15444;BME280;7822;48.146;11.576;2023-05-08T13:09:22;95540.22;;;16.25;74.46
15444;BME280;7822;48.146;11.576;2023-05-08T13:11:49;95543.78;;;16.24;74.14
15444;BME280;7822;48.146;11.576;2023-05-08T13:14:17;95541.16;;;16.24;74.04
15444;BME280;7822;48.146;11.576;2023-05-08T13:16:46;95542.00;;;16.24;74.15
15444;BME280;7822;48.146;11.576;2023-05-08T13:19:14;95539.38;;;16.24;74.00